createdAt,value
2018-12-13T00:04:42.656Z,22.97
2018-12-13T00:09:45.838Z,23.17
2018-12-13T00:14:48.993Z,24.07
2018-12-13T00:19:52.166Z,23.73
2018-12-13T00:24:55.331Z,26.30
2018-12-13T00:29:58.499Z,25.10
2018-12-13T00:35:01.645Z,25.73
2018-12-13T00:40:04.812Z,25.50
2018-12-13T00:45:07.964Z,24.60
2018-12-13T00:50:11.111Z,24.23
2018-12-13T00:55:14.275Z,22.93
2018-12-13T01:00:17.424Z,22.47
2018-12-13T01:10:30.195Z,22.77
2018-12-13T01:15:34.185Z,24.17
2018-12-13T01:20:37.392Z,24.37
2018-12-13T01:25:40.539Z,23.77
2018-12-13T01:30:43.716Z,25.17
2018-12-13T01:35:46.838Z,24.73
2018-12-13T01:40:49.930Z,24.13
2018-12-13T01:45:53.068Z,25.10
2018-12-13T01:50:56.243Z,24.53
2018-12-13T01:55:59.371Z,26.33
2018-12-13T02:01:02.521Z,23.87
2018-12-13T02:06:05.630Z,25.07
2018-12-13T02:11:08.767Z,24.93
2018-12-13T02:16:11.934Z,25.30
2018-12-13T02:21:15.075Z,25.80
2018-12-13T02:26:18.178Z,26.17
2018-12-13T02:31:21.299Z,26.23
2018-12-13T02:36:24.448Z,28.50
2018-12-13T02:41:27.556Z,25.73
2018-12-13T02:46:30.801Z,26.07
2018-12-13T02:51:34.067Z,27.37
2018-12-13T02:56:37.206Z,25.50
2018-12-13T03:01:40.337Z,27.67
2018-12-13T03:06:43.474Z,27.60
2018-12-13T03:11:46.626Z,26.67
2018-12-13T03:16:49.788Z,27.90
2018-12-13T03:21:52.935Z,29.07
2018-12-13T03:26:56.063Z,28.43
2018-12-13T03:31:59.205Z,28.50
2018-12-13T03:37:02.356Z,27.37
2018-12-13T03:42:05.819Z,29.00
2018-12-13T03:47:09.010Z,27.70
2018-12-13T03:52:12.162Z,28.23
2018-12-13T03:57:15.247Z,27.90
2018-12-13T04:02:18.384Z,26.40
2018-12-13T04:07:27.632Z,25.80
2018-12-13T04:12:26.673Z,25.90
2018-12-13T04:17:29.820Z,26.57
2018-12-13T04:22:32.953Z,27.37
2018-12-13T04:27:36.089Z,27.30
2018-12-13T04:32:39.242Z,27.23
2018-12-13T04:37:42.365Z,28.67
2018-12-13T04:42:45.513Z,27.97
2018-12-13T04:47:48.660Z,28.20
2018-12-13T04:52:51.802Z,28.93
2018-12-13T04:57:54.942Z,27.50
2018-12-13T05:02:58.105Z,29.17
2018-12-13T05:08:01.253Z,31.40
2018-12-13T05:13:04.404Z,27.93
2018-12-13T05:18:07.585Z,34.10
2018-12-13T05:23:10.708Z,26.27
2018-12-13T05:28:13.852Z,32.00
2018-12-13T05:33:17.000Z,28.03
2018-12-13T05:38:20.131Z,27.00
2018-12-13T05:43:23.276Z,27.07
2018-12-13T05:48:26.425Z,24.13
2018-12-13T05:53:29.588Z,26.57
2018-12-13T05:58:32.703Z,27.40
2018-12-13T06:03:35.835Z,27.33
2018-12-13T06:08:38.987Z,27.37
2018-12-13T06:13:42.165Z,27.23
2018-12-13T06:18:45.328Z,27.23
2018-12-13T06:23:48.556Z,27.57
2018-12-13T06:28:51.708Z,26.33
2018-12-13T06:33:54.890Z,27.40
2018-12-13T06:38:58.019Z,24.67
2018-12-13T06:44:01.243Z,26.23
2018-12-13T06:49:04.411Z,25.80
2018-12-13T06:54:07.563Z,26.93
2018-12-13T06:59:10.671Z,25.93
2018-12-13T07:04:13.827Z,26.27
2018-12-13T07:09:17.041Z,26.17
2018-12-13T07:14:20.207Z,27.13
2018-12-13T07:19:23.357Z,25.80
2018-12-13T07:24:26.518Z,26.03
2018-12-13T07:29:29.680Z,26.07
2018-12-13T07:34:32.817Z,27.07
2018-12-13T07:39:35.984Z,26.40
2018-12-13T07:44:39.157Z,27.47
2018-12-13T07:49:42.345Z,25.83
2018-12-13T07:54:45.511Z,26.80
2018-12-13T07:59:48.695Z,26.93
2018-12-13T08:04:51.908Z,27.57
2018-12-13T08:09:55.062Z,26.33
2018-12-13T08:14:58.178Z,29.10
2018-12-13T08:20:01.343Z,28.23
2018-12-13T08:25:04.714Z,27.80
2018-12-13T08:30:07.860Z,27.73
2018-12-13T08:35:11.178Z,27.93
2018-12-13T08:40:14.319Z,28.47
2018-12-13T08:45:17.455Z,27.67
2018-12-13T08:50:20.538Z,26.63
2018-12-13T08:55:23.687Z,27.80
2018-12-13T09:00:26.852Z,28.30
2018-12-13T09:05:30.054Z,26.63
2018-12-13T09:10:33.228Z,26.27
2018-12-13T09:15:36.369Z,28.37
2018-12-13T09:20:39.521Z,27.43
2018-12-13T09:25:42.653Z,27.87
2018-12-13T09:30:45.825Z,27.20
2018-12-13T09:35:48.965Z,28.30
2018-12-13T09:40:52.147Z,30.50
2018-12-13T09:45:55.352Z,28.77
2018-12-13T09:50:58.602Z,31.93
2018-12-13T09:56:01.754Z,31.93
2018-12-13T10:01:05.145Z,33.60
2018-12-13T10:06:08.462Z,30.30
2018-12-13T10:11:11.636Z,29.00
2018-12-13T10:16:14.866Z,30.40
2018-12-13T10:21:18.072Z,28.37
2018-12-13T10:26:21.687Z,30.17
2018-12-13T10:31:24.803Z,28.00
2018-12-13T10:36:28.010Z,27.70
2018-12-13T10:41:31.203Z,28.63
2018-12-13T10:46:34.388Z,27.47
2018-12-13T10:51:37.725Z,26.87
2018-12-13T10:56:40.860Z,27.70
2018-12-13T11:01:48.321Z,26.10
2018-12-13T11:06:51.446Z,25.70
2018-12-13T11:11:54.689Z,27.80
2018-12-13T11:16:57.900Z,25.97
2018-12-13T11:22:01.076Z,25.90
2018-12-13T11:27:16.516Z,23.70
2018-12-13T11:32:19.677Z,24.57
2018-12-13T11:37:22.791Z,25.20
2018-12-13T11:42:25.943Z,23.80
2018-12-13T11:47:29.169Z,23.63
2018-12-13T11:52:32.433Z,26.07
2018-12-13T11:57:35.621Z,23.17
2018-12-13T12:02:38.832Z,23.20
2018-12-13T12:07:42.109Z,22.50
2018-12-13T12:12:45.258Z,21.93
2018-12-13T12:17:48.355Z,20.13
2018-12-13T12:22:51.554Z,21.77
2018-12-13T12:27:54.765Z,21.97
2018-12-13T12:32:57.941Z,22.20
2018-12-13T12:38:01.012Z,21.63
2018-12-13T12:43:04.054Z,20.77
2018-12-13T12:48:07.259Z,20.70
2018-12-13T12:53:10.404Z,19.63
2018-12-13T12:58:13.607Z,20.63
2018-12-13T13:03:16.706Z,20.50
2018-12-13T13:08:19.892Z,19.87
2018-12-13T13:13:23.073Z,19.23
2018-12-13T13:18:26.240Z,18.47
2018-12-13T13:23:29.426Z,20.90
2018-12-13T13:28:32.627Z,19.50
2018-12-13T13:33:35.788Z,19.37
2018-12-13T13:38:39.142Z,18.83
2018-12-13T13:43:42.280Z,17.80
2018-12-13T13:48:45.468Z,16.73
2018-12-13T13:53:48.692Z,18.10
2018-12-13T13:58:51.845Z,17.63
2018-12-13T14:03:55.101Z,18.27
2018-12-13T14:08:58.321Z,17.77
2018-12-13T14:14:02.024Z,19.43
2018-12-13T14:19:05.274Z,17.07
2018-12-13T14:24:08.381Z,18.60
2018-12-13T14:29:12.112Z,20.63
2018-12-13T14:34:18.382Z,18.87
2018-12-13T14:39:21.452Z,18.87
2018-12-13T14:44:24.714Z,19.07
2018-12-13T14:49:27.783Z,19.30
2018-12-13T14:54:30.932Z,19.00
2018-12-13T14:59:34.094Z,20.10
2018-12-13T15:04:37.221Z,20.43
2018-12-13T15:09:40.666Z,21.20
2018-12-13T15:14:43.878Z,21.73
2018-12-13T15:19:47.012Z,20.73
2018-12-13T15:24:50.257Z,21.43
2018-12-13T15:29:53.423Z,24.73
2018-12-13T15:34:56.637Z,21.77
2018-12-13T15:39:59.748Z,21.53
2018-12-13T15:45:02.895Z,21.93
2018-12-13T15:50:06.801Z,23.17
2018-12-13T15:55:09.977Z,23.50
2018-12-13T16:00:13.176Z,23.50
2018-12-13T16:05:16.295Z,23.73
2018-12-13T16:10:19.460Z,23.67
2018-12-13T16:15:22.616Z,23.37
2018-12-13T16:20:25.738Z,22.90
2018-12-13T16:25:28.853Z,23.97
2018-12-13T16:30:32.007Z,24.57
2018-12-13T16:35:35.170Z,24.13
2018-12-13T16:40:38.289Z,26.40
2018-12-13T16:45:41.472Z,26.13
2018-12-13T16:50:44.623Z,23.53
2018-12-13T16:55:47.903Z,24.70
2018-12-13T17:00:51.076Z,24.90
2018-12-13T17:05:54.263Z,23.10
2018-12-13T17:10:57.534Z,24.10
2018-12-13T17:16:00.768Z,24.00
2018-12-13T17:21:04.480Z,25.97
2018-12-13T17:26:07.611Z,25.30
2018-12-13T17:31:10.806Z,23.93
2018-12-13T17:36:13.949Z,25.40
2018-12-13T17:41:17.087Z,25.73
2018-12-13T17:46:20.327Z,25.57
2018-12-13T17:51:23.536Z,24.27
2018-12-13T17:56:26.835Z,24.80
2018-12-13T18:01:29.979Z,25.03
2018-12-13T18:06:33.144Z,26.10
2018-12-13T18:11:36.319Z,23.23
2018-12-13T18:16:43.414Z,24.37
2018-12-13T18:21:44.650Z,25.00
2018-12-13T18:26:47.909Z,24.73
2018-12-13T18:31:51.035Z,25.40
2018-12-13T18:36:54.202Z,25.23
2018-12-13T18:41:57.484Z,25.00
2018-12-13T18:47:00.619Z,23.97
2018-12-13T18:52:03.750Z,26.30
2018-12-13T18:57:06.887Z,25.60
2018-12-13T19:02:10.060Z,26.17
2018-12-13T19:07:14.046Z,27.10
2018-12-13T19:12:17.191Z,27.27
2018-12-13T19:17:20.344Z,23.67
2018-12-13T19:22:23.451Z,25.10
2018-12-13T19:27:30.082Z,25.50
2018-12-13T19:32:33.436Z,27.83
2018-12-13T19:37:36.776Z,23.60
2018-12-13T19:42:40.019Z,26.30
2018-12-13T19:52:54.503Z,20.87
2018-12-13T19:57:57.878Z,22.10
2018-12-13T20:03:08.874Z,21.53
2018-12-13T20:08:12.275Z,21.93
2018-12-13T20:13:15.591Z,20.67
2018-12-13T20:18:23.990Z,20.13
2018-12-13T20:23:30.519Z,21.57
2018-12-13T20:34:35.693Z,20.33
2018-12-13T20:39:41.431Z,19.30
2018-12-13T20:44:44.776Z,20.40
2018-12-13T20:49:48.136Z,19.23
2018-12-13T20:54:51.546Z,20.63
2018-12-13T20:59:54.943Z,19.97
2018-12-13T21:05:00.259Z,22.20
2018-12-13T21:10:07.609Z,20.60
2018-12-13T21:20:54.208Z,19.37
2018-12-13T21:26:06.461Z,21.80
2018-12-13T21:31:18.932Z,20.77
2018-12-13T21:36:26.467Z,20.20
2018-12-13T21:41:31.938Z,20.67
2018-12-13T21:46:35.351Z,19.83
2018-12-13T21:51:38.654Z,20.10
2018-12-13T21:56:42.483Z,20.13
2018-12-13T22:01:45.715Z,21.10
2018-12-13T22:06:48.957Z,21.63
2018-12-13T22:11:52.111Z,20.47
2018-12-13T22:16:56.313Z,20.20
2018-12-13T22:21:59.680Z,20.53
2018-12-13T22:27:02.922Z,21.57
2018-12-13T22:32:06.556Z,21.00
2018-12-13T22:37:09.860Z,21.97
2018-12-13T22:42:13.052Z,21.90
2018-12-13T22:47:16.212Z,22.97
2018-12-13T22:52:19.380Z,21.43
2018-12-13T22:57:22.572Z,21.03
2018-12-13T23:02:25.681Z,21.77
2018-12-13T23:07:28.871Z,22.60
2018-12-13T23:12:32.023Z,24.03
2018-12-13T23:17:35.146Z,23.43
2018-12-13T23:22:38.311Z,22.00
2018-12-13T23:27:41.491Z,20.80
2018-12-13T23:32:44.651Z,23.20
2018-12-13T23:37:47.821Z,22.97
2018-12-13T23:42:50.949Z,21.03
2018-12-13T23:47:54.115Z,22.77
2018-12-13T23:52:57.299Z,23.10
2018-12-13T23:58:00.475Z,22.63
